sensor_id;sensor_type;location;lat;lon;timestamp;P1;durP1;ratioP1;P2;durP2;ratioP2
37771;SDS011;23610;59.380;24.642;2023-06-10T00:04:46;3.72;;;3.13;;
37771;SDS011;23610;59.380;24.642;2023-06-10T00:09:49;5.30;;;2.83;;
37771;SDS011;23610;59.380;24.642;2023-06-10T00:14:52;3.58;;;2.83;;
37771;SDS011;23610;59.380;24.642;2023-06-10T00:19:55;3.80;;;2.85;;
37771;SDS011;23610;59.380;24.642;2023-06-10T00:24:58;5.90;;;4.10;;
37771;SDS011;23610;59.380;24.642;2023-06-10T00:30:02;9.70;;;4.00;;
37771;SDS011;23610;59.380;24.642;2023-06-10T00:35:08;10.50;;;3.88;;
37771;SDS011;23610;59.380;24.642;2023-06-10T00:40:11;7.70;;;3.60;;
37771;SDS011;23610;59.380;24.642;2023-06-10T00:45:14;5.15;;;3.55;;
37771;SDS011;23610;59.380;24.642;2023-06-10T00:50:17;6.60;;;4.13;;
37771;SDS011;23610;59.380;24.642;2023-06-10T00:55:19;9.93;;;3.92;;
37771;SDS011;23610;59.380;24.642;2023-06-10T01:00:22;6.90;;;3.53;;
37771;SDS011;23610;59.380;24.642;2023-06-10T01:05:25;9.82;;;3.90;;
37771;SDS011;23610;59.380;24.642;2023-06-10T01:15:55;7.97;;;3.60;;
37771;SDS011;23610;59.380;24.642;2023-06-10T01:20:58;7.15;;;3.63;;
37771;SDS011;23610;59.380;24.642;2023-06-10T01:26:09;5.97;;;3.42;;
37771;SDS011;23610;59.380;24.642;2023-06-10T01:31:15;6.00;;;3.42;;
37771;SDS011;23610;59.380;24.642;2023-06-10T01:36:25;12.63;;;4.90;;
37771;SDS011;23610;59.380;24.642;2023-06-10T01:41:29;6.20;;;3.22;;
37771;SDS011;23610;59.380;24.642;2023-06-10T01:46:32;3.63;;;2.85;;
37771;SDS011;23610;59.380;24.642;2023-06-10T01:51:35;4.75;;;3.10;;
37771;SDS011;23610;59.380;24.642;2023-06-10T01:56:37;4.05;;;3.00;;
37771;SDS011;23610;59.380;24.642;2023-06-10T02:01:40;4.68;;;3.40;;
37771;SDS011;23610;59.380;24.642;2023-06-10T02:06:44;8.23;;;3.47;;
37771;SDS011;23610;59.380;24.642;2023-06-10T02:11:47;6.80;;;3.53;;
37771;SDS011;23610;59.380;24.642;2023-06-10T02:16:50;3.58;;;2.50;;
37771;SDS011;23610;59.380;24.642;2023-06-10T02:21:53;4.45;;;2.70;;
37771;SDS011;23610;59.380;24.642;2023-06-10T02:26:56;4.18;;;3.50;;
37771;SDS011;23610;59.380;24.642;2023-06-10T02:32:02;4.43;;;3.13;;
37771;SDS011;23610;59.380;24.642;2023-06-10T02:37:05;4.80;;;2.75;;
37771;SDS011;23610;59.380;24.642;2023-06-10T02:42:09;2.45;;;1.92;;
37771;SDS011;23610;59.380;24.642;2023-06-10T02:47:12;5.20;;;2.10;;
37771;SDS011;23610;59.380;24.642;2023-06-10T02:52:15;2.35;;;1.63;;
37771;SDS011;23610;59.380;24.642;2023-06-10T02:57:18;3.85;;;2.08;;
37771;SDS011;23610;59.380;24.642;2023-06-10T03:02:21;3.85;;;2.00;;
37771;SDS011;23610;59.380;24.642;2023-06-10T03:07:30;3.10;;;1.80;;
37771;SDS011;23610;59.380;24.642;2023-06-10T03:12:34;6.43;;;1.63;;
37771;SDS011;23610;59.380;24.642;2023-06-10T03:17:37;5.80;;;2.33;;
37771;SDS011;23610;59.380;24.642;2023-06-10T03:22:40;1.48;;;1.33;;
37771;SDS011;23610;59.380;24.642;2023-06-10T03:27:44;1.80;;;1.70;;
37771;SDS011;23610;59.380;24.642;2023-06-10T03:32:47;2.47;;;1.73;;
37771;SDS011;23610;59.380;24.642;2023-06-10T03:37:55;3.10;;;1.70;;
37771;SDS011;23610;59.380;24.642;2023-06-10T03:43:00;1.95;;;1.73;;
37771;SDS011;23610;59.380;24.642;2023-06-10T03:48:04;3.60;;;2.10;;
37771;SDS011;23610;59.380;24.642;2023-06-10T03:53:16;3.88;;;1.73;;
37771;SDS011;23610;59.380;24.642;2023-06-10T03:58:20;2.15;;;1.60;;
37771;SDS011;23610;59.380;24.642;2023-06-10T04:03:22;5.15;;;1.73;;
37771;SDS011;23610;59.380;24.642;2023-06-10T04:08:26;3.88;;;1.98;;
37771;SDS011;23610;59.380;24.642;2023-06-10T04:13:29;5.30;;;1.67;;
37771;SDS011;23610;59.380;24.642;2023-06-10T04:18:33;1.97;;;1.43;;
37771;SDS011;23610;59.380;24.642;2023-06-10T04:23:40;1.38;;;1.27;;
37771;SDS011;23610;59.380;24.642;2023-06-10T04:28:44;4.47;;;1.15;;
37771;SDS011;23610;59.380;24.642;2023-06-10T04:33:48;5.53;;;1.15;;
37771;SDS011;23610;59.380;24.642;2023-06-10T04:38:50;2.38;;;1.23;;
37771;SDS011;23610;59.380;24.642;2023-06-10T04:43:55;1.13;;;1.00;;
37771;SDS011;23610;59.380;24.642;2023-06-10T04:48:58;1.23;;;1.10;;
37771;SDS011;23610;59.380;24.642;2023-06-10T04:54:01;4.50;;;1.30;;
37771;SDS011;23610;59.380;24.642;2023-06-10T04:59:05;2.00;;;1.13;;
37771;SDS011;23610;59.380;24.642;2023-06-10T05:04:08;1.25;;;0.70;;
37771;SDS011;23610;59.380;24.642;2023-06-10T05:09:11;0.60;;;0.60;;
37771;SDS011;23610;59.380;24.642;2023-06-10T05:14:13;1.08;;;0.63;;
37771;SDS011;23610;59.380;24.642;2023-06-10T05:19:20;1.30;;;0.80;;
37771;SDS011;23610;59.380;24.642;2023-06-10T05:24:23;2.47;;;0.95;;
37771;SDS011;23610;59.380;24.642;2023-06-10T05:29:26;2.75;;;1.23;;
37771;SDS011;23610;59.380;24.642;2023-06-10T05:34:29;4.97;;;1.20;;
37771;SDS011;23610;59.380;24.642;2023-06-10T05:39:32;1.83;;;1.10;;
37771;SDS011;23610;59.380;24.642;2023-06-10T05:44:38;1.35;;;1.00;;
37771;SDS011;23610;59.380;24.642;2023-06-10T05:49:41;1.83;;;1.15;;
37771;SDS011;23610;59.380;24.642;2023-06-10T05:54:47;4.07;;;1.10;;
37771;SDS011;23610;59.380;24.642;2023-06-10T05:59:50;2.35;;;1.23;;
37771;SDS011;23610;59.380;24.642;2023-06-10T06:04:53;1.95;;;1.17;;
37771;SDS011;23610;59.380;24.642;2023-06-10T06:09:55;1.17;;;0.70;;
37771;SDS011;23610;59.380;24.642;2023-06-10T06:14:58;3.25;;;0.90;;
37771;SDS011;23610;59.380;24.642;2023-06-10T06:20:01;0.82;;;0.75;;
37771;SDS011;23610;59.380;24.642;2023-06-10T06:25:05;0.60;;;0.57;;
37771;SDS011;23610;59.380;24.642;2023-06-10T06:30:09;3.97;;;1.10;;
37771;SDS011;23610;59.380;24.642;2023-06-10T06:35:11;5.38;;;1.15;;
37771;SDS011;23610;59.380;24.642;2023-06-10T06:40:14;0.30;;;0.30;;
37771;SDS011;23610;59.380;24.642;2023-06-10T06:45:17;2.15;;;0.40;;
37771;SDS011;23610;59.380;24.642;2023-06-10T06:50:20;0.90;;;0.70;;
37771;SDS011;23610;59.380;24.642;2023-06-10T06:55:22;1.58;;;0.52;;
37771;SDS011;23610;59.380;24.642;2023-06-10T07:00:25;0.52;;;0.52;;
37771;SDS011;23610;59.380;24.642;2023-06-10T07:05:27;1.70;;;0.68;;
37771;SDS011;23610;59.380;24.642;2023-06-10T07:10:31;0.50;;;0.50;;
37771;SDS011;23610;59.380;24.642;2023-06-10T07:15:34;0.88;;;0.65;;
37771;SDS011;23610;59.380;24.642;2023-06-10T07:20:37;0.70;;;0.50;;
37771;SDS011;23610;59.380;24.642;2023-06-10T07:25:41;0.70;;;0.70;;
37771;SDS011;23610;59.380;24.642;2023-06-10T07:30:44;0.77;;;0.77;;
37771;SDS011;23610;59.380;24.642;2023-06-10T07:35:46;0.63;;;0.40;;
37771;SDS011;23610;59.380;24.642;2023-06-10T07:40:49;1.58;;;0.50;;
37771;SDS011;23610;59.380;24.642;2023-06-10T07:45:51;0.60;;;0.60;;
37771;SDS011;23610;59.380;24.642;2023-06-10T07:50:54;0.70;;;0.38;;
37771;SDS011;23610;59.380;24.642;2023-06-10T07:55:56;0.70;;;0.47;;
37771;SDS011;23610;59.380;24.642;2023-06-10T08:00:59;1.13;;;0.52;;
37771;SDS011;23610;59.380;24.642;2023-06-10T08:06:01;3.92;;;0.75;;
37771;SDS011;23610;59.380;24.642;2023-06-10T08:11:04;1.98;;;0.93;;
37771;SDS011;23610;59.380;24.642;2023-06-10T08:16:07;0.50;;;0.40;;
37771;SDS011;23610;59.380;24.642;2023-06-10T08:21:10;0.43;;;0.43;;
37771;SDS011;23610;59.380;24.642;2023-06-10T08:26:12;0.60;;;0.52;;
37771;SDS011;23610;59.380;24.642;2023-06-10T08:31:15;0.68;;;0.60;;
37771;SDS011;23610;59.380;24.642;2023-06-10T08:36:17;0.68;;;0.43;;
37771;SDS011;23610;59.380;24.642;2023-06-10T08:41:21;0.40;;;0.40;;
37771;SDS011;23610;59.380;24.642;2023-06-10T08:46:27;0.70;;;0.70;;
37771;SDS011;23610;59.380;24.642;2023-06-10T08:51:32;0.60;;;0.60;;
37771;SDS011;23610;59.380;24.642;2023-06-10T08:56:40;0.80;;;0.80;;
37771;SDS011;23610;59.380;24.642;2023-06-10T09:01:44;1.23;;;0.50;;
37771;SDS011;23610;59.380;24.642;2023-06-10T09:11:51;0.35;;;0.35;;
37771;SDS011;23610;59.380;24.642;2023-06-10T09:16:54;0.68;;;0.40;;
37771;SDS011;23610;59.380;24.642;2023-06-10T09:21:59;1.45;;;0.80;;
37771;SDS011;23610;59.380;24.642;2023-06-10T09:27:05;1.15;;;0.63;;
37771;SDS011;23610;59.380;24.642;2023-06-10T09:32:09;1.85;;;0.55;;
37771;SDS011;23610;59.380;24.642;2023-06-10T09:37:12;2.70;;;0.50;;
37771;SDS011;23610;59.380;24.642;2023-06-10T09:42:20;1.88;;;0.63;;
37771;SDS011;23610;59.380;24.642;2023-06-10T09:47:23;0.57;;;0.57;;
37771;SDS011;23610;59.380;24.642;2023-06-10T09:52:27;0.40;;;0.40;;
37771;SDS011;23610;59.380;24.642;2023-06-10T09:57:31;0.68;;;0.43;;
37771;SDS011;23610;59.380;24.642;2023-06-10T10:02:47;0.95;;;0.40;;
37771;SDS011;23610;59.380;24.642;2023-06-10T10:07:55;0.57;;;0.30;;
37771;SDS011;23610;59.380;24.642;2023-06-10T10:12:58;0.52;;;0.50;;
37771;SDS011;23610;59.380;24.642;2023-06-10T10:18:09;0.40;;;0.40;;
37771;SDS011;23610;59.380;24.642;2023-06-10T10:23:18;0.85;;;0.60;;
37771;SDS011;23610;59.380;24.642;2023-06-10T10:28:29;1.60;;;0.60;;
37771;SDS011;23610;59.380;24.642;2023-06-10T10:33:59;0.60;;;0.40;;
37771;SDS011;23610;59.380;24.642;2023-06-10T10:39:04;0.65;;;0.50;;
37771;SDS011;23610;59.380;24.642;2023-06-10T10:44:06;3.13;;;0.70;;
37771;SDS011;23610;59.380;24.642;2023-06-10T10:49:12;1.15;;;0.40;;
37771;SDS011;23610;59.380;24.642;2023-06-10T10:54:16;3.63;;;0.70;;
37771;SDS011;23610;59.380;24.642;2023-06-10T10:59:19;1.27;;;0.70;;
37771;SDS011;23610;59.380;24.642;2023-06-10T11:04:22;0.95;;;0.63;;
37771;SDS011;23610;59.380;24.642;2023-06-10T11:09:29;0.35;;;0.35;;
37771;SDS011;23610;59.380;24.642;2023-06-10T11:14:31;1.98;;;0.68;;
37771;SDS011;23610;59.380;24.642;2023-06-10T11:19:36;1.85;;;0.80;;
37771;SDS011;23610;59.380;24.642;2023-06-10T11:24:40;0.38;;;0.38;;
37771;SDS011;23610;59.380;24.642;2023-06-10T11:29:59;0.95;;;0.50;;
37771;SDS011;23610;59.380;24.642;2023-06-10T11:35:23;2.33;;;0.60;;
37771;SDS011;23610;59.380;24.642;2023-06-10T11:40:26;0.57;;;0.57;;
37771;SDS011;23610;59.380;24.642;2023-06-10T11:45:32;1.48;;;0.85;;
37771;SDS011;23610;59.380;24.642;2023-06-10T11:50:34;1.13;;;0.50;;
37771;SDS011;23610;59.380;24.642;2023-06-10T12:00:51;0.40;;;0.40;;
37771;SDS011;23610;59.380;24.642;2023-06-10T12:06:00;2.25;;;0.70;;
37771;SDS011;23610;59.380;24.642;2023-06-10T12:11:05;1.52;;;0.70;;
37771;SDS011;23610;59.380;24.642;2023-06-10T12:16:09;0.52;;;0.52;;
37771;SDS011;23610;59.380;24.642;2023-06-10T12:21:15;0.68;;;0.68;;
37771;SDS011;23610;59.380;24.642;2023-06-10T12:26:33;0.43;;;0.43;;
37771;SDS011;23610;59.380;24.642;2023-06-10T12:37:10;2.28;;;0.65;;
37771;SDS011;23610;59.380;24.642;2023-06-10T12:42:18;3.00;;;0.50;;
37771;SDS011;23610;59.380;24.642;2023-06-10T12:47:35;0.80;;;0.63;;
37771;SDS011;23610;59.380;24.642;2023-06-10T12:52:42;9.52;;;0.77;;
37771;SDS011;23610;59.380;24.642;2023-06-10T12:57:49;2.83;;;0.55;;
37771;SDS011;23610;59.380;24.642;2023-06-10T13:02:52;0.70;;;0.50;;
37771;SDS011;23610;59.380;24.642;2023-06-10T13:07:55;0.60;;;0.57;;
37771;SDS011;23610;59.380;24.642;2023-06-10T13:12:57;1.20;;;0.98;;
37771;SDS011;23610;59.380;24.642;2023-06-10T13:18:02;0.45;;;0.45;;
37771;SDS011;23610;59.380;24.642;2023-06-10T13:23:07;3.90;;;0.82;;
37771;SDS011;23610;59.380;24.642;2023-06-10T13:28:10;1.77;;;1.67;;
37771;SDS011;23610;59.380;24.642;2023-06-10T13:33:13;6.72;;;1.02;;
37771;SDS011;23610;59.380;24.642;2023-06-10T13:38:15;1.35;;;0.50;;
37771;SDS011;23610;59.380;24.642;2023-06-10T13:43:18;1.13;;;0.80;;
37771;SDS011;23610;59.380;24.642;2023-06-10T13:48:21;2.50;;;0.65;;
37771;SDS011;23610;59.380;24.642;2023-06-10T13:53:23;0.70;;;0.60;;
37771;SDS011;23610;59.380;24.642;2023-06-10T13:58:26;3.03;;;0.73;;
37771;SDS011;23610;59.380;24.642;2023-06-10T14:03:28;1.00;;;0.70;;
37771;SDS011;23610;59.380;24.642;2023-06-10T14:08:31;1.83;;;1.10;;
37771;SDS011;23610;59.380;24.642;2023-06-10T14:13:34;1.77;;;1.15;;
37771;SDS011;23610;59.380;24.642;2023-06-10T14:18:39;1.02;;;0.68;;
37771;SDS011;23610;59.380;24.642;2023-06-10T14:23:42;3.70;;;0.82;;
37771;SDS011;23610;59.380;24.642;2023-06-10T14:28:45;2.33;;;0.75;;
37771;SDS011;23610;59.380;24.642;2023-06-10T14:33:47;1.27;;;0.90;;
37771;SDS011;23610;59.380;24.642;2023-06-10T14:38:50;1.60;;;0.60;;
37771;SDS011;23610;59.380;24.642;2023-06-10T14:43:52;1.63;;;0.70;;
37771;SDS011;23610;59.380;24.642;2023-06-10T14:48:55;1.05;;;0.80;;
37771;SDS011;23610;59.380;24.642;2023-06-10T14:53:57;0.57;;;0.57;;
37771;SDS011;23610;59.380;24.642;2023-06-10T14:59:00;6.47;;;5.75;;
37771;SDS011;23610;59.380;24.642;2023-06-10T15:04:03;3.75;;;1.00;;
37771;SDS011;23610;59.380;24.642;2023-06-10T15:09:06;1.40;;;0.80;;
37771;SDS011;23610;59.380;24.642;2023-06-10T15:14:09;0.63;;;0.63;;
37771;SDS011;23610;59.380;24.642;2023-06-10T15:19:11;1.33;;;0.73;;
37771;SDS011;23610;59.380;24.642;2023-06-10T15:24:14;1.63;;;1.30;;
37771;SDS011;23610;59.380;24.642;2023-06-10T15:29:17;3.63;;;1.30;;
37771;SDS011;23610;59.380;24.642;2023-06-10T15:34:19;2.72;;;2.53;;
37771;SDS011;23610;59.380;24.642;2023-06-10T15:39:22;4.65;;;1.40;;
37771;SDS011;23610;59.380;24.642;2023-06-10T15:44:26;2.30;;;1.05;;
37771;SDS011;23610;59.380;24.642;2023-06-10T15:49:29;1.67;;;0.70;;
37771;SDS011;23610;59.380;24.642;2023-06-10T15:54:32;5.05;;;1.65;;
37771;SDS011;23610;59.380;24.642;2023-06-10T15:59:34;1.02;;;0.93;;
37771;SDS011;23610;59.380;24.642;2023-06-10T16:04:37;2.47;;;0.65;;
37771;SDS011;23610;59.380;24.642;2023-06-10T16:09:40;2.00;;;0.57;;
37771;SDS011;23610;59.380;24.642;2023-06-10T16:14:42;0.82;;;0.82;;
37771;SDS011;23610;59.380;24.642;2023-06-10T16:19:45;3.92;;;1.08;;
37771;SDS011;23610;59.380;24.642;2023-06-10T16:24:48;5.18;;;0.85;;
37771;SDS011;23610;59.380;24.642;2023-06-10T16:29:51;0.82;;;0.60;;
37771;SDS011;23610;59.380;24.642;2023-06-10T16:34:54;1.47;;;1.33;;
37771;SDS011;23610;59.380;24.642;2023-06-10T16:39:57;0.80;;;0.80;;
37771;SDS011;23610;59.380;24.642;2023-06-10T16:45:00;1.08;;;1.00;;
37771;SDS011;23610;59.380;24.642;2023-06-10T16:50:03;3.05;;;0.95;;
37771;SDS011;23610;59.380;24.642;2023-06-10T16:55:06;0.82;;;0.82;;
37771;SDS011;23610;59.380;24.642;2023-06-10T17:00:10;1.60;;;1.10;;
37771;SDS011;23610;59.380;24.642;2023-06-10T17:05:13;1.20;;;0.80;;
37771;SDS011;23610;59.380;24.642;2023-06-10T17:10:16;5.28;;;0.90;;
37771;SDS011;23610;59.380;24.642;2023-06-10T17:15:18;1.88;;;1.00;;
37771;SDS011;23610;59.380;24.642;2023-06-10T17:20:21;1.35;;;0.85;;
37771;SDS011;23610;59.380;24.642;2023-06-10T17:25:24;3.97;;;0.80;;
37771;SDS011;23610;59.380;24.642;2023-06-10T17:30:26;2.67;;;0.93;;
37771;SDS011;23610;59.380;24.642;2023-06-10T17:35:29;1.80;;;1.00;;
37771;SDS011;23610;59.380;24.642;2023-06-10T17:40:31;1.42;;;1.33;;
37771;SDS011;23610;59.380;24.642;2023-06-10T17:45:34;3.25;;;0.90;;
37771;SDS011;23610;59.380;24.642;2023-06-10T17:50:39;1.15;;;0.85;;
37771;SDS011;23610;59.380;24.642;2023-06-10T17:55:42;0.85;;;0.80;;
37771;SDS011;23610;59.380;24.642;2023-06-10T18:00:45;1.30;;;1.05;;
37771;SDS011;23610;59.380;24.642;2023-06-10T18:05:47;0.55;;;0.50;;
37771;SDS011;23610;59.380;24.642;2023-06-10T18:10:50;2.13;;;0.82;;
37771;SDS011;23610;59.380;24.642;2023-06-10T18:15:52;3.25;;;0.85;;
37771;SDS011;23610;59.380;24.642;2023-06-10T18:20:55;2.03;;;0.98;;
37771;SDS011;23610;59.380;24.642;2023-06-10T18:26:02;1.10;;;1.00;;
37771;SDS011;23610;59.380;24.642;2023-06-10T18:31:08;4.90;;;1.00;;
37771;SDS011;23610;59.380;24.642;2023-06-10T18:36:10;2.08;;;1.33;;
37771;SDS011;23610;59.380;24.642;2023-06-10T18:41:13;3.25;;;2.08;;
37771;SDS011;23610;59.380;24.642;2023-06-10T18:46:15;4.25;;;2.08;;
37771;SDS011;23610;59.380;24.642;2023-06-10T18:51:19;7.65;;;1.98;;
37771;SDS011;23610;59.380;24.642;2023-06-10T18:56:24;1.95;;;1.60;;
37771;SDS011;23610;59.380;24.642;2023-06-10T19:01:26;1.73;;;1.27;;
37771;SDS011;23610;59.380;24.642;2023-06-10T19:06:29;5.88;;;1.30;;
37771;SDS011;23610;59.380;24.642;2023-06-10T19:11:31;2.35;;;1.90;;
37771;SDS011;23610;59.380;24.642;2023-06-10T19:16:34;2.90;;;1.80;;
37771;SDS011;23610;59.380;24.642;2023-06-10T19:21:37;1.38;;;1.27;;
37771;SDS011;23610;59.380;24.642;2023-06-10T19:26:40;6.75;;;1.50;;
37771;SDS011;23610;59.380;24.642;2023-06-10T19:31:42;5.55;;;1.75;;
37771;SDS011;23610;59.380;24.642;2023-06-10T19:36:45;1.98;;;1.40;;
37771;SDS011;23610;59.380;24.642;2023-06-10T19:41:49;5.40;;;1.60;;
37771;SDS011;23610;59.380;24.642;2023-06-10T19:46:51;3.53;;;1.95;;
37771;SDS011;23610;59.380;24.642;2023-06-10T19:51:54;3.05;;;1.55;;
37771;SDS011;23610;59.380;24.642;2023-06-10T19:56:56;3.03;;;1.67;;
37771;SDS011;23610;59.380;24.642;2023-06-10T20:01:59;1.73;;;1.63;;
37771;SDS011;23610;59.380;24.642;2023-06-10T20:07:11;7.03;;;2.47;;
37771;SDS011;23610;59.380;24.642;2023-06-10T20:12:45;2.50;;;1.90;;
37771;SDS011;23610;59.380;24.642;2023-06-10T20:17:47;17.88;;;8.07;;
37771;SDS011;23610;59.380;24.642;2023-06-10T20:22:56;33.42;;;12.23;;
37771;SDS011;23610;59.380;24.642;2023-06-10T20:27:59;333.83;;;145.18;;
37771;SDS011;23610;59.380;24.642;2023-06-10T20:33:10;302.20;;;129.70;;
37771;SDS011;23610;59.380;24.642;2023-06-10T20:38:24;245.45;;;94.85;;
37771;SDS011;23610;59.380;24.642;2023-06-10T20:43:30;211.27;;;70.60;;
37771;SDS011;23610;59.380;24.642;2023-06-10T20:48:33;309.00;;;110.57;;
37771;SDS011;23610;59.380;24.642;2023-06-10T20:53:36;164.07;;;54.90;;
37771;SDS011;23610;59.380;24.642;2023-06-10T20:58:39;115.65;;;38.05;;
37771;SDS011;23610;59.380;24.642;2023-06-10T21:03:42;128.57;;;45.28;;
37771;SDS011;23610;59.380;24.642;2023-06-10T21:08:44;160.88;;;53.63;;
37771;SDS011;23610;59.380;24.642;2023-06-10T21:13:47;158.63;;;54.83;;
37771;SDS011;23610;59.380;24.642;2023-06-10T21:18:49;124.88;;;42.65;;
37771;SDS011;23610;59.380;24.642;2023-06-10T21:23:52;90.80;;;33.50;;
37771;SDS011;23610;59.380;24.642;2023-06-10T21:29:00;23.88;;;10.50;;
37771;SDS011;23610;59.380;24.642;2023-06-10T21:34:05;20.40;;;6.75;;
37771;SDS011;23610;59.380;24.642;2023-06-10T21:39:08;8.88;;;3.58;;
37771;SDS011;23610;59.380;24.642;2023-06-10T21:44:11;2.50;;;2.17;;
37771;SDS011;23610;59.380;24.642;2023-06-10T21:49:14;4.93;;;2.15;;
37771;SDS011;23610;59.380;24.642;2023-06-10T21:54:17;4.72;;;1.67;;
37771;SDS011;23610;59.380;24.642;2023-06-10T21:59:20;3.33;;;1.92;;
37771;SDS011;23610;59.380;24.642;2023-06-10T22:04:23;1.98;;;1.65;;
37771;SDS011;23610;59.380;24.642;2023-06-10T22:09:26;3.28;;;2.20;;
37771;SDS011;23610;59.380;24.642;2023-06-10T22:14:29;4.53;;;2.35;;
37771;SDS011;23610;59.380;24.642;2023-06-10T22:19:32;3.92;;;2.60;;
37771;SDS011;23610;59.380;24.642;2023-06-10T22:24:40;6.30;;;3.42;;
37771;SDS011;23610;59.380;24.642;2023-06-10T22:29:42;14.18;;;5.55;;
37771;SDS011;23610;59.380;24.642;2023-06-10T22:34:45;12.20;;;4.82;;
37771;SDS011;23610;59.380;24.642;2023-06-10T22:39:48;8.07;;;4.63;;
37771;SDS011;23610;59.380;24.642;2023-06-10T22:44:50;9.57;;;4.55;;
37771;SDS011;23610;59.380;24.642;2023-06-10T22:49:53;5.35;;;2.80;;
37771;SDS011;23610;59.380;24.642;2023-06-10T22:54:56;9.02;;;3.35;;
37771;SDS011;23610;59.380;24.642;2023-06-10T22:59:58;4.40;;;2.45;;
37771;SDS011;23610;59.380;24.642;2023-06-10T23:05:02;4.10;;;3.10;;
37771;SDS011;23610;59.380;24.642;2023-06-10T23:10:05;3.20;;;2.47;;
37771;SDS011;23610;59.380;24.642;2023-06-10T23:15:08;4.10;;;2.55;;
37771;SDS011;23610;59.380;24.642;2023-06-10T23:20:12;4.38;;;2.13;;
37771;SDS011;23610;59.380;24.642;2023-06-10T23:25:24;3.13;;;2.50;;
37771;SDS011;23610;59.380;24.642;2023-06-10T23:30:27;4.40;;;2.58;;
37771;SDS011;23610;59.380;24.642;2023-06-10T23:35:29;3.85;;;2.92;;
37771;SDS011;23610;59.380;24.642;2023-06-10T23:40:32;2.33;;;1.95;;
37771;SDS011;23610;59.380;24.642;2023-06-10T23:45:35;2.72;;;2.17;;
37771;SDS011;23610;59.380;24.642;2023-06-10T23:50:40;9.82;;;2.78;;
37771;SDS011;23610;59.380;24.642;2023-06-10T23:55:43;6.75;;;2.17;;
